createdAt,value
2023-03-29T00:04:42.959Z,7.10
2023-03-29T00:09:45.125Z,7.00
2023-03-29T00:14:47.326Z,6.80
2023-03-29T00:19:50.841Z,6.70
2023-03-29T00:24:54.532Z,6.60
2023-03-29T00:29:58.039Z,6.50
2023-03-29T00:35:02.104Z,6.20
2023-03-29T00:40:05.464Z,6.10
2023-03-29T00:45:17.710Z,6.20
2023-03-29T00:50:26.019Z,6.00
2023-03-29T00:55:33.331Z,6.00
2023-03-29T01:00:41.952Z,6.10
2023-03-29T01:05:50.102Z,5.80
2023-03-29T01:10:57.777Z,5.70
2023-03-29T01:16:01.988Z,5.70
2023-03-29T01:21:23.673Z,5.60
2023-03-29T01:26:31.982Z,5.70
2023-03-29T01:31:39.506Z,5.90
2023-03-29T01:36:49.616Z,5.80
2023-03-29T01:42:01.149Z,5.50
2023-03-29T01:47:12.137Z,5.40
2023-03-29T01:52:18.408Z,5.30
2023-03-29T01:57:21.925Z,5.30
2023-03-29T02:02:32.073Z,5.30
2023-03-29T02:07:37.603Z,5.20
2023-03-29T02:12:40.413Z,5.40
2023-03-29T02:17:46.550Z,5.50
2023-03-29T02:22:56.335Z,5.60
2023-03-29T02:27:58.899Z,5.50
2023-03-29T02:33:07.522Z,5.50
2023-03-29T02:38:11.827Z,5.40
2023-03-29T02:43:15.990Z,5.40
2023-03-29T02:48:24.913Z,5.30
2023-03-29T02:53:30.374Z,5.30
2023-03-29T02:58:33.086Z,5.40
2023-03-29T03:03:36.980Z,5.40
2023-03-29T03:08:39.220Z,5.30
2023-03-29T03:13:41.498Z,5.40
2023-03-29T03:18:46.101Z,5.40
2023-03-29T03:23:48.695Z,5.50
2023-03-29T03:28:51.293Z,5.50
2023-03-29T03:33:55.593Z,5.60
2023-03-29T03:38:57.842Z,5.60
2023-03-29T03:44:00.279Z,5.60
2023-03-29T03:49:04.780Z,5.60
2023-03-29T03:54:07.045Z,5.60
2023-03-29T03:59:09.625Z,5.60
2023-03-29T04:04:14.966Z,5.50
2023-03-29T04:09:18.324Z,5.60
2023-03-29T04:14:20.702Z,5.60
2023-03-29T04:19:24.619Z,5.60
2023-03-29T04:24:26.753Z,5.60
2023-03-29T04:29:29.658Z,5.70
2023-03-29T04:34:33.213Z,5.70
2023-03-29T04:39:35.696Z,5.70
2023-03-29T04:44:38.070Z,5.60
2023-03-29T04:49:42.536Z,5.70
2023-03-29T04:54:44.672Z,5.60
2023-03-29T04:59:47.134Z,5.80
2023-03-29T05:04:51.400Z,5.80
2023-03-29T05:10:25.604Z,5.80
2023-03-29T05:21:09.840Z,5.70
2023-03-29T05:26:15.308Z,5.60
2023-03-29T05:31:17.845Z,5.70
2023-03-29T05:36:21.620Z,5.70
2023-03-29T05:41:24.025Z,5.70
2023-03-29T05:46:26.240Z,5.70
2023-03-29T05:51:30.096Z,5.70
2023-03-29T05:56:32.090Z,5.90
2023-03-29T06:01:34.591Z,5.90
2023-03-29T06:06:38.182Z,5.90
2023-03-29T06:11:40.971Z,5.90
2023-03-29T06:16:43.432Z,5.90
2023-03-29T06:21:47.513Z,5.90
2023-03-29T06:26:49.981Z,6.00
2023-03-29T06:31:52.176Z,6.20
2023-03-29T06:36:56.564Z,6.20
2023-03-29T06:41:59.909Z,6.30
2023-03-29T06:47:04.019Z,6.40
2023-03-29T06:52:08.240Z,6.40
2023-03-29T06:57:10.728Z,6.50
2023-03-29T07:02:15.768Z,6.60
2023-03-29T07:07:22.271Z,6.60
2023-03-29T07:12:24.651Z,6.70
2023-03-29T07:17:27.620Z,6.80
2023-03-29T07:22:31.411Z,6.80
2023-03-29T07:27:33.553Z,6.90
2023-03-29T07:32:36.560Z,6.90
2023-03-29T07:37:43.026Z,7.00
2023-03-29T07:42:45.832Z,7.10
2023-03-29T07:47:49.233Z,7.40
2023-03-29T07:52:53.567Z,7.50
2023-03-29T07:57:56.023Z,7.50
2023-03-29T08:02:58.363Z,7.60
2023-03-29T08:08:01.864Z,7.50
2023-03-29T08:13:06.220Z,7.60
2023-03-29T08:18:08.780Z,7.80
2023-03-29T08:23:12.497Z,7.90
2023-03-29T08:28:14.990Z,7.90
2023-03-29T08:33:18.065Z,8.10
2023-03-29T08:38:22.891Z,8.20
2023-03-29T08:43:43.424Z,8.30
2023-03-29T08:48:50.857Z,8.40
2023-03-29T08:53:58.502Z,8.50
2023-03-29T08:59:00.978Z,8.60
2023-03-29T09:04:09.184Z,8.60
2023-03-29T09:09:19.315Z,8.50
2023-03-29T09:14:49.213Z,8.70
2023-03-29T09:20:02.603Z,8.90
2023-03-29T09:25:15.273Z,8.80
2023-03-29T09:30:26.090Z,8.90
2023-03-29T09:35:35.854Z,9.40
2023-03-29T09:40:46.420Z,9.70
2023-03-29T09:45:52.754Z,10.00
2023-03-29T09:50:55.090Z,10.40
2023-03-29T09:55:59.026Z,10.30
2023-03-29T10:01:03.297Z,10.30
2023-03-29T10:06:08.757Z,10.50
2023-03-29T10:11:19.906Z,10.20
2023-03-29T10:16:23.670Z,10.20
2023-03-29T10:21:25.976Z,10.30
2023-03-29T10:26:34.618Z,10.00
2023-03-29T10:31:41.895Z,10.10
2023-03-29T10:36:47.013Z,10.30
2023-03-29T10:41:53.970Z,10.50
2023-03-29T10:46:56.428Z,10.90
2023-03-29T10:51:58.661Z,11.20
2023-03-29T10:57:07.203Z,11.00
2023-03-29T11:02:34.351Z,11.10
2023-03-29T11:07:46.820Z,11.00
2023-03-29T11:12:57.709Z,11.40
2023-03-29T11:18:12.079Z,11.20
2023-03-29T11:23:31.716Z,11.20
2023-03-29T11:28:43.368Z,11.70
2023-03-29T11:33:56.841Z,11.50
2023-03-29T11:39:06.820Z,11.60
2023-03-29T11:44:17.907Z,11.10
2023-03-29T11:49:24.739Z,10.80
2023-03-29T11:54:32.201Z,10.60
2023-03-29T11:59:39.318Z,10.20
2023-03-29T12:04:48.000Z,10.10
2023-03-29T12:09:54.439Z,10.00
2023-03-29T12:15:04.744Z,10.20
2023-03-29T12:20:17.999Z,10.40
2023-03-29T12:25:26.327Z,10.80
2023-03-29T12:30:47.610Z,10.80
2023-03-29T12:35:59.338Z,10.80
2023-03-29T12:41:03.500Z,10.80
2023-03-29T12:46:14.065Z,10.80
2023-03-29T12:51:19.382Z,10.50
2023-03-29T12:56:23.884Z,10.50
2023-03-29T13:01:32.425Z,10.90
2023-03-29T13:06:53.740Z,11.00
2023-03-29T13:11:58.707Z,11.40
2023-03-29T13:17:17.552Z,11.90
2023-03-29T13:22:33.276Z,12.80
2023-03-29T13:27:46.653Z,13.10
2023-03-29T13:32:57.107Z,13.30
2023-03-29T13:38:09.268Z,13.30
2023-03-29T13:43:25.201Z,13.00
2023-03-29T13:48:30.265Z,13.20
2023-03-29T13:53:38.069Z,13.10
2023-03-29T13:58:46.771Z,13.60
2023-03-29T14:03:53.073Z,13.50
2023-03-29T14:08:55.464Z,13.30
2023-03-29T14:13:59.189Z,13.20
2023-03-29T14:19:05.605Z,13.10
2023-03-29T14:24:13.138Z,13.30
2023-03-29T14:29:16.046Z,13.30
2023-03-29T14:34:20.492Z,13.90
2023-03-29T14:39:24.237Z,13.80
2023-03-29T14:44:29.458Z,13.80
2023-03-29T14:49:33.991Z,13.70
2023-03-29T14:54:37.162Z,13.70
2023-03-29T14:59:42.887Z,14.60
2023-03-29T15:04:46.550Z,15.50
2023-03-29T15:09:49.048Z,15.90
2023-03-29T15:14:52.567Z,15.20
2023-03-29T15:20:01.373Z,14.80
2023-03-29T15:25:04.148Z,14.50
2023-03-29T15:30:14.294Z,14.40
2023-03-29T15:35:26.452Z,14.30
2023-03-29T15:40:29.398Z,14.20
2023-03-29T15:45:31.620Z,14.20
2023-03-29T15:50:35.470Z,14.80
2023-03-29T15:55:40.617Z,15.10
2023-03-29T16:00:45.680Z,14.70
2023-03-29T16:05:49.419Z,14.60
2023-03-29T16:10:51.757Z,14.40
2023-03-29T16:15:53.980Z,14.20
2023-03-29T16:20:59.528Z,14.10
2023-03-29T16:26:01.823Z,14.00
2023-03-29T16:31:04.202Z,14.00
2023-03-29T16:36:09.763Z,13.90
2023-03-29T16:41:15.857Z,13.90
2023-03-29T16:46:18.150Z,13.70
2023-03-29T16:51:22.036Z,13.70
2023-03-29T16:56:24.956Z,13.60
2023-03-29T17:01:28.154Z,13.60
2023-03-29T17:06:34.190Z,13.50
2023-03-29T17:11:36.822Z,13.50
2023-03-29T17:16:39.117Z,13.40
2023-03-29T17:21:43.384Z,13.40
2023-03-29T17:26:46.089Z,13.50
2023-03-29T17:31:49.255Z,13.50
2023-03-29T17:36:53.796Z,13.40
2023-03-29T17:41:55.810Z,13.30
2023-03-29T17:46:58.419Z,13.30
2023-03-29T17:52:03.464Z,13.30
2023-03-29T17:57:07.704Z,13.20
2023-03-29T18:02:16.207Z,12.90
2023-03-29T18:07:24.136Z,12.90
2023-03-29T18:12:27.753Z,12.80
2023-03-29T18:17:31.856Z,12.60
2023-03-29T18:22:36.293Z,12.60
2023-03-29T18:27:41.197Z,12.60
2023-03-29T18:32:44.647Z,12.60
2023-03-29T18:37:49.766Z,12.60
2023-03-29T18:42:53.949Z,12.60
2023-03-29T18:47:58.072Z,12.60
2023-03-29T18:53:04.659Z,12.60
2023-03-29T18:58:08.619Z,12.50
2023-03-29T19:03:13.182Z,12.50
2023-03-29T19:08:18.238Z,12.50
2023-03-29T19:13:22.299Z,12.50
2023-03-29T19:18:26.275Z,12.40
2023-03-29T19:23:32.155Z,12.50
2023-03-29T19:28:37.226Z,12.60
2023-03-29T19:33:42.494Z,12.60
2023-03-29T19:38:49.487Z,12.60
2023-03-29T19:43:54.146Z,12.70
2023-03-29T19:48:58.265Z,12.60
2023-03-29T19:54:03.443Z,12.70
2023-03-29T19:59:07.237Z,12.80
2023-03-29T20:04:12.383Z,12.80
2023-03-29T20:09:18.543Z,12.80
2023-03-29T20:14:21.535Z,12.60
2023-03-29T20:19:25.908Z,12.30
2023-03-29T20:24:30.002Z,12.00
2023-03-29T20:29:33.378Z,11.70
2023-03-29T20:34:36.244Z,11.30
2023-03-29T20:39:39.615Z,11.20
2023-03-29T20:44:41.880Z,11.30
2023-03-29T20:49:44.627Z,11.20
2023-03-29T20:54:49.058Z,11.10
2023-03-29T20:59:51.338Z,10.90
2023-03-29T21:04:54.983Z,10.70
2023-03-29T21:10:00.878Z,10.80
2023-03-29T21:15:03.973Z,10.80
2023-03-29T21:20:10.372Z,11.00
2023-03-29T21:25:16.008Z,11.10
2023-03-29T21:30:18.281Z,11.10
2023-03-29T21:35:21.671Z,11.00
2023-03-29T21:40:25.526Z,10.90
2023-03-29T21:45:27.946Z,11.00
2023-03-29T21:50:31.970Z,10.90
2023-03-29T21:55:37.615Z,10.80
2023-03-29T22:00:40.132Z,11.00
2023-03-29T22:05:42.768Z,11.20
2023-03-29T22:10:46.655Z,11.30
2023-03-29T22:15:50.035Z,11.50
2023-03-29T22:20:52.171Z,11.50
2023-03-29T22:25:55.961Z,11.60
2023-03-29T22:31:03.783Z,11.60
2023-03-29T22:36:15.080Z,11.60
2023-03-29T22:41:20.548Z,11.50
2023-03-29T22:46:23.421Z,11.50
2023-03-29T22:51:25.836Z,11.50
2023-03-29T22:56:29.705Z,11.60
2023-03-29T23:01:32.290Z,11.60
2023-03-29T23:06:34.491Z,11.50
2023-03-29T23:11:38.332Z,11.60
2023-03-29T23:16:40.553Z,11.70
2023-03-29T23:21:42.883Z,11.60
2023-03-29T23:26:49.150Z,11.60
2023-03-29T23:31:51.478Z,11.90
2023-03-29T23:36:54.006Z,11.90
2023-03-29T23:41:58.186Z,12.00
2023-03-29T23:47:01.405Z,11.80
2023-03-29T23:52:03.981Z,11.80
2023-03-29T23:57:07.842Z,11.70
